Accueil
METAR-TAF:

METAR-TAF

Aéroports :

Aéroport de Lanzhou Zhongchuan

Lanzhou, Chine

latitude: 36-02N, longitude: 103-52E, altitude: 1518 m

Observation

Le bulletin a été fait il y a 1 heure et 11 minutes, à 20:00 UTC
Vent 6 kt de nord-ouest
Température 3°C
Humidité 100%
Pression 1016 hPa
Visibilité: 8000 m

METAR: ZLLL 202000Z 31003MPS 8000 NSC 03/03 Q1016 NOSIG

Heure: 05:11 (21:11 UTC)

Prévision

Le bulletin a été fait il y a 6 heures et 9 minutes, à 15:02 UTC
Prévision valable du 20 à 18 UTC au 21 à 18 UTC
Vent 6 kt de nord/nord-ouest
Visibilité: 5000 m
brume
Temporairement
du 21 à 08 UTC au 21 à 14 UTC
Vent 16 kt de nord
Quelques nuages à une hauteur de 3300 ft, Cumulonimbus.
Nuages épars à une hauteur de 4000 ft
faibles averses de pluie,

TAF: ZLLL 201502Z 2018/2118 33003MPS 5000 BR NSC TX18/2108Z TN01/2023Z TEMPO 2108/2114 35008MPS -SHRA FEW033CB SCT040

Observations et prévisions météorologiques de plus de 4000 aéroports (messages METAR et TAF).

Les stations disponibles sont représentées par des disques jaunes et rouges sur la carte.

Passer la souris dessus pour voir le nom de la station.

Cliquer dessus pour voir les observations et prévisions météorologiques.

Pour changer de carte: cliquez sur les boutons verts avec une croix noire pour zoomer, sur le bouton vert avec un tiret pour effectuer un zoom arrière, ou sur les flèches vertes pour les cartes adjacentes.


METAR-TAF: